< < Back
Terminal Aerodrome Forecast


Current Version              Previous Versions:   1  2  3  4  5  6  7  8  9  

Terminal Aerodrome Forecast

503
FTUS42 KFFC 291721
TAFPDK
TAF
KPDK 291721Z 2918/3018 35008KT P6SM SCT050
     FM292300 03004KT P6SM FEW070
     FM300300 00000KT P6SM SKC
     FM301500 32006KT P6SM FEW040=



Latest METAR

712
SAUS70 KWBC 300300 RRD
MTRPDK
METAR KPDK 300253Z AUTO 16003KT 10SM CLR 23/17 A3007 RMK AO2 SLP163
T02330172 51012


USA.gov is the U.S. government's official web portal to all federal, state and local government web resources and services.